Time;durP1;ratioP1;P1;durP2;ratioP2;P2;SDS_P1;SDS_P2;PMS_P1;PMS_P2;Temp;Humidity;BMP_temperature;BMP_pressure;BME280_temperature;BME280_humidity;BME280_pressure;Samples;Min_cycle;Max_cycle;Signal;HPM_P1;HPM_P2
2021/05/01 00:04:40;;;;;;;17.4;15.1;;;;;;;7.58;87.57324;98188.42;;;;
2021/05/01 00:14:39;;;;;;;17.5;13;;;;;;;7.52;89.43652;98181.57;;;;
2021/05/01 00:24:36;;;;;;;16.1;14.4;;;;;;;7.53;89.80664;98190.41;;;;
2021/05/01 00:34:35;;;;;;;17.3;13.3;;;;;;;7.52;89.44727;98219.11;;;;
2021/05/01 00:44:33;;;;;;;14.8;11.9;;;;;;;7.51;89.13086;98222.08;;;;
2021/05/01 00:54:31;;;;;;;15.5;13.2;;;;;;;7.41;89.36719;98222.27;;;;
2021/05/01 01:04:29;;;;;;;18.9;16.4;;;;;;;7.21;92.33594;98209.22;;;;
2021/05/01 01:14:28;;;;;;;21.4;16;;;;;;;7.13;93.09863;98207.2;;;;
2021/05/01 01:24:30;;;;;;;16.6;14.9;;;;;;;7.04;95.14063;98191.82;;;;
2021/05/01 01:34:24;;;;;;;23.9;21.5;;;;;;;7;96.64551;98201.53;;;;
2021/05/01 01:44:22;;;;;;;21.8;17.4;;;;;;;7.04;96.64063;98207.09;;;;
2021/05/01 01:54:21;;;;;;;22;16.3;;;;;;;7;96.86816;98201.53;;;;
2021/05/01 02:04:22;;;;;;;20.5;16.4;;;;;;;7.13;96.62695;98196.48;;;;
2021/05/01 02:14:17;;;;;;;15.3;13.7;;;;;;;7.3;95.76563;98199.4;;;;
2021/05/01 02:24:15;;;;;;;18.1;16.1;;;;;;;7.48;94.17773;98183.25;;;;
2021/05/01 02:34:14;;;;;;;17.4;14.7;;;;;;;7.65;92.68457;98187.22;;;;
2021/05/01 02:44:12;;;;;;;18.1;14.1;;;;;;;7.51;93.37207;98163.88;;;;
2021/05/01 02:54:10;;;;;;;19.5;15.5;;;;;;;7.58;94.05566;98164.28;;;;
2021/05/01 03:04:08;;;;;;;16.5;15;;;;;;;7.54;96.11914;98160.6;;;;
2021/05/01 03:14:07;;;;;;;15.7;14.1;;;;;;;7.5;96.74414;98172.21;;;;
2021/05/01 03:24:05;;;;;;;17.5;15.7;;;;;;;7.42;100;98146.11;;;;
2021/05/01 03:34:03;;;;;;;19.6;15.4;;;;;;;7.37;100;98148.88;;;;
2021/05/01 03:44:02;;;;;;;20.1;17.8;;;;;;;7.33;100;98150.55;;;;
2021/05/01 03:54:00;;;;;;;23.7;16.5;;;;;;;7.26;100;98172.39;;;;
2021/05/01 04:03:58;;;;;;;21.9;16.7;;;;;;;7.09;100;98156.09;;;;
2021/05/01 04:13:57;;;;;;;21.7;19.4;;;;;;;7.15;100;98172.89;;;;
2021/05/01 04:23:55;;;;;;;26.7;21.2;;;;;;;7.08;100;98170.56;;;;
2021/05/01 04:33:54;;;;;;;24.5;19.8;;;;;;;7.04;100;98194.5;;;;
2021/05/01 04:43:52;;;;;;;24.9;20.7;;;;;;;7.13;100;98175.05;;;;
2021/05/01 04:53:50;;;;;;;25.8;22.2;;;;;;;7.33;100;98188.08;;;;
2021/05/01 05:03:49;;;;;;;29.3;20.9;;;;;;;7.26;100;98180.43;;;;
2021/05/01 05:13:47;;;;;;;22;19.6;;;;;;;7.2;100;98181.62;;;;
2021/05/01 05:23:45;;;;;;;20.8;18.2;;;;;;;7.34;100;98174.4;;;;
2021/05/01 05:33:44;;;;;;;22.9;19.2;;;;;;;7.19;100;98161.26;;;;
2021/05/01 05:43:42;;;;;;;24.3;21.9;;;;;;;7.21;100;98152.94;;;;
2021/05/01 05:53:41;;;;;;;24.9;20.4;;;;;;;7.15;100;98180.92;;;;
2021/05/01 06:03:39;;;;;;;20.2;17.7;;;;;;;7.1;100;98173.77;;;;
2021/05/01 06:13:38;;;;;;;19.9;17.2;;;;;;;7.2;100;98156.7;;;;
2021/05/01 06:23:36;;;;;;;23.6;18.6;;;;;;;7.23;100;98154.22;;;;
2021/05/01 06:33:35;;;;;;;18.5;16.3;;;;;;;7.2;100;98140.63;;;;
2021/05/01 06:43:32;;;;;;;23.6;19.9;;;;;;;7.41;100;98155.23;;;;
2021/05/01 06:53:31;;;;;;;24.9;20.9;;;;;;;7.61;100;98149.47;;;;
2021/05/01 07:03:29;;;;;;;21.9;19;;;;;;;7.59;100;98144.42;;;;
2021/05/01 07:13:28;;;;;;;21.2;18.9;;;;;;;7.66;100;98129.81;;;;
2021/05/01 07:23:26;;;;;;;19.9;17.8;;;;;;;8.14;100;98163.13;;;;
2021/05/01 07:33:26;;;;;;;21.3;19;;;;;;;8.05;100;98170.32;;;;
2021/05/01 07:43:23;;;;;;;21.2;18.1;;;;;;;8.52;100;98177.08;;;;
2021/05/01 07:53:22;;;;;;;21.4;18.5;;;;;;;8.53;100;98184.84;;;;
2021/05/01 08:03:22;;;;;;;19.4;17.4;;;;;;;8.79;100;98174.28;;;;
2021/05/01 08:13:22;;;;;;;23.8;21.2;;;;;;;8.67;100;98165.99;;;;
2021/05/01 08:23:18;;;;;;;25.3;20.2;;;;;;;8.79;100;98181.55;;;;
2021/05/01 08:33:16;;;;;;;22.8;20.7;;;;;;;8.81;100;98200.86;;;;
2021/05/01 08:43:15;;;;;;;23.9;21.4;;;;;;;8.74;100;98195.91;;;;
2021/05/01 08:53:14;;;;;;;19.5;16.8;;;;;;;9.08;100;98204.21;;;;
2021/05/01 09:03:12;;;;;;;27.4;21.3;;;;;;;9.43;100;98229.41;;;;
2021/05/01 09:13:11;;;;;;;27.3;24.5;;;;;;;9.47;100;98232.28;;;;
2021/05/01 09:23:10;;;;;;;29.6;25.3;;;;;;;9.53;100;98222.97;;;;
2021/05/01 09:33:08;;;;;;;29.5;26.3;;;;;;;9.72;100;98230.82;;;;
2021/05/01 09:43:07;;;;;;;27.4;24.5;;;;;;;9.72;100;98222.75;;;;
2021/05/01 09:53:07;;;;;;;26.5;20.9;;;;;;;11.07;100;98223.28;;;;
2021/05/01 10:03:05;;;;;;;26.3;22.8;;;;;;;11.58;100;98218.91;;;;
2021/05/01 10:13:04;;;;;;;24.9;19.7;;;;;;;11.64;100;98198.7;;;;
2021/05/01 10:23:03;;;;;;;24.4;20.5;;;;;;;12.63;100;98185.63;;;;
2021/05/01 10:33:11;;;;;;;18.1;16.3;;;;;;;12.77;100;98191.55;;;;
2021/05/01 10:43:01;;;;;;;21.1;19;;;;;;;12.73;100;98188.72;;;;
2021/05/01 10:53:03;;;;;;;25.6;20.1;;;;;;;13.15;100;98186.78;;;;
2021/05/01 11:03:00;;;;;;;22.4;19.1;;;;;;;13.54;100;98179.96;;;;
2021/05/01 11:12:59;;;;;;;23.3;20.8;;;;;;;13.98;97.9248;98168.27;;;;
2021/05/01 11:22:58;;;;;;;23.8;19.5;;;;;;;13.95;98.2334;98171.64;;;;
2021/05/01 11:32:58;;;;;;;25;21.5;;;;;;;13.87;98.44043;98185.31;;;;
2021/05/01 11:42:57;;;;;;;22.3;20.1;;;;;;;13.78;99.5957;98198.95;;;;
2021/05/01 11:52:57;;;;;;;24.5;19.7;;;;;;;13.29;100;98208.92;;;;
2021/05/01 12:02:56;;;;;;;24.6;22.1;;;;;;;13.8;100;98204.84;;;;
2021/05/01 12:12:55;;;;;;;27.1;21.4;;;;;;;14.28;100;98179.64;;;;
2021/05/01 12:22:55;;;;;;;24.4;21.8;;;;;;;14.9;98.00195;98167.51;;;;
2021/05/01 12:32:54;;;;;;;28.6;25.5;;;;;;;15.65;94.47949;98149.37;;;;
2021/05/01 12:42:55;;;;;;;27.1;24.2;;;;;;;15.93;94.1084;98150.02;;;;
2021/05/01 12:52:53;;;;;;;29.3;26.2;;;;;;;15.75;91.72754;98145.32;;;;
2021/05/01 13:02:53;;;;;;;29.6;23.3;;;;;;;15.91;90.52148;98125.14;;;;
2021/05/01 13:12:53;;;;;;;24.9;22.2;;;;;;;15.56;93.08789;98152.25;;;;
2021/05/01 13:22:52;;;;;;;28.2;23.9;;;;;;;15.37;93.05859;98149.41;;;;
2021/05/01 13:32:52;;;;;;;24.4;21.9;;;;;;;15.49;93.81152;98133.05;;;;
2021/05/01 13:42:51;;;;;;;30.7;26.8;;;;;;;15.04;95.90332;98133.41;;;;
2021/05/01 13:52:51;;;;;;;29.1;25.4;;;;;;;14.93;96.80859;98128.83;;;;
2021/05/01 14:02:50;;;;;;;28.5;25.5;;;;;;;14.76;96.05664;98120.99;;;;
2021/05/01 14:12:50;;;;;;;27.3;23.4;;;;;;;15.13;96.11523;98135.98;;;;
2021/05/01 14:22:50;;;;;;;33.8;28;;;;;;;14.77;97.30566;98131.51;;;;
2021/05/01 14:32:49;;;;;;;28.3;25.6;;;;;;;14.82;98.91211;98116.92;;;;
2021/05/01 14:42:49;;;;;;;28.6;25.7;;;;;;;15.18;99.42188;98110.48;;;;
2021/05/01 14:52:48;;;;;;;32.4;26.9;;;;;;;15.23;96.43164;98124.61;;;;
2021/05/01 15:02:48;;;;;;;30.6;26.1;;;;;;;15.43;94.83105;98117.34;;;;
2021/05/01 15:12:47;;;;;;;27.4;24.3;;;;;;;15.53;96.38574;98106.77;;;;
2021/05/01 15:22:47;;;;;;;32.4;25.2;;;;;;;15.08;97.49902;98096.3;;;;
2021/05/01 15:32:46;;;;;;;28.5;25.6;;;;;;;14.9;98.61523;98086.91;;;;
2021/05/01 15:42:46;;;;;;;29.3;25.5;;;;;;;15.31;96.83398;98076.69;;;;
2021/05/01 15:52:45;;;;;;;32.8;26.7;;;;;;;15.48;97.55176;98095.37;;;;
2021/05/01 16:02:45;;;;;;;32.3;29;;;;;;;15.6;95.29688;98065.41;;;;
2021/05/01 16:12:44;;;;;;;30.1;26.8;;;;;;;15.26;96.62012;98072.33;;;;
2021/05/01 16:22:44;;;;;;;31.1;28.1;;;;;;;14.75;98.16211;98068.66;;;;
2021/05/01 16:32:44;;;;;;;29.8;26.7;;;;;;;14.71;98.68262;98064.3;;;;
2021/05/01 16:42:43;;;;;;;27.5;24.9;;;;;;;14.55;99.92676;98058.81;;;;
2021/05/01 16:52:42;;;;;;;27.7;24.7;;;;;;;14.15;100;98056.13;;;;
2021/05/01 17:02:42;;;;;;;41.9;36.6;;;;;;;13.86;100;98021.98;;;;
2021/05/01 17:12:42;;;;;;;36.7;31;;;;;;;13.66;100;98036.47;;;;
2021/05/01 17:22:40;;;;;;;34;30.4;;;;;;;13.41;100;98057.35;;;;
2021/05/01 17:32:40;;;;;;;42.9;33.9;;;;;;;13;100;98071.83;;;;
2021/05/01 17:42:39;;;;;;;45.2;40.5;;;;;;;12.98;100;98092.23;;;;
2021/05/01 17:52:38;;;;;;;57.9;52.1;;;;;;;12.55;100;98098.06;;;;
2021/05/01 18:02:37;;;;;;;53.6;47.3;;;;;;;12.19;100;98093.27;;;;
2021/05/01 18:12:37;;;;;;;66.1;56.9;;;;;;;12.06;100;98097.81;;;;
2021/05/01 18:22:36;;;;;;;56.5;47.6;;;;;;;11.96;100;98114.41;;;;
2021/05/01 18:32:35;;;;;;;43.4;38.7;;;;;;;11.82;100;98119.26;;;;
2021/05/01 18:42:34;;;;;;;43.8;39.1;;;;;;;11.54;100;98097.3;;;;
2021/05/01 18:52:33;;;;;;;44;39.5;;;;;;;11.68;100;98110.57;;;;
2021/05/01 19:02:32;;;;;;;46.3;38.7;;;;;;;11.67;100;98117.08;;;;
2021/05/01 19:12:31;;;;;;;45.3;40.5;;;;;;;11.61;100;98110.29;;;;
2021/05/01 19:22:30;;;;;;;54.8;48.4;;;;;;;11.54;100;98112.7;;;;
2021/05/01 19:32:28;;;;;;;48.8;43.4;;;;;;;11.48;100;98089.72;;;;
2021/05/01 19:42:28;;;;;;;49;42.3;;;;;;;11.47;100;98085.44;;;;
2021/05/01 19:52:26;;;;;;;42;37.5;;;;;;;11.41;100;98068.65;;;;
2021/05/01 20:02:26;;;;;;;43;36.3;;;;;;;11.67;100;98081.19;;;;
2021/05/01 20:12:24;;;;;;;46.1;38.3;;;;;;;11.73;100;98080.7;;;;
2021/05/01 20:22:23;;;;;;;45.8;41;;;;;;;11.52;100;98060.98;;;;
2021/05/01 20:32:25;;;;;;;51;43.1;;;;;;;11.52;100;98040.15;;;;
2021/05/01 20:42:23;;;;;;;46.9;42.2;;;;;;;11.38;100;98023.44;;;;
2021/05/01 20:52:23;;;;;;;48;42.1;;;;;;;11.38;100;98009.95;;;;
2021/05/01 21:02:19;;;;;;;51.6;39.1;;;;;;;11.34;100;97995.52;;;;
2021/05/01 21:12:18;;;;;;;50.5;41.4;;;;;;;11.13;100;97983.89;;;;
2021/05/01 21:22:17;;;;;;;48.8;38.8;;;;;;;10.97;100;97982.84;;;;
2021/05/01 21:32:16;;;;;;;48.3;43.4;;;;;;;10.86;100;97966.27;;;;
2021/05/01 21:42:15;;;;;;;58.5;48.3;;;;;;;10.95;100;97967.01;;;;
2021/05/01 21:52:16;;;;;;;56.9;45.9;;;;;;;10.8;100;97931.7;;;;
2021/05/01 22:02:13;;;;;;;49.7;42.9;;;;;;;10.76;100;97923.48;;;;
2021/05/01 22:12:12;;;;;;;54.2;43;;;;;;;10.6;100;97914.36;;;;
2021/05/01 22:22:20;;;;;;;52.5;46.8;;;;;;;10.53;100;97892.52;;;;
2021/05/01 22:32:09;;;;;;;43.9;39.5;;;;;;;10.56;100;97876.5;;;;
2021/05/01 22:42:08;;;;;;;44.1;39.6;;;;;;;10.43;100;97863.25;;;;
2021/05/01 22:52:07;;;;;;;44.1;36.6;;;;;;;10.5;100;97842.78;;;;
2021/05/01 23:02:06;;;;;;;49.3;38.2;;;;;;;10.47;100;97840.73;;;;
2021/05/01 23:12:05;;;;;;;39.9;35.9;;;;;;;10.48;100;97830.75;;;;
2021/05/01 23:22:03;;;;;;;44.5;37.3;;;;;;;10.39;100;97827.3;;;;
2021/05/01 23:32:02;;;;;;;44.8;38.9;;;;;;;10.48;100;97798.43;;;;
2021/05/01 23:42:01;;;;;;;41.5;35.9;;;;;;;10.37;100;97781.05;;;;
2021/05/01 23:52:00;;;;;;;34;30.4;;;;;;;10.42;100;97748.53;;;;
